Mauna Loa — WDC2819 — position and weather

sailwx.info

Track history (hours):
 
Tides and Currents Weather Stations Pressure Air Temp Water Temp Dewpoint Dewpoint Depression Visibility Wind Speed Wind Dir Waves Ship Positions

Mauna Loa

Owner: Salmon Bay Barge Line, Inc., Seattle, WA. More information available from US FCC via Universal Licensing System and Coast Guard Vessel Documentation Center.

Last reported at 2017-Oct-29 09:21 UTC. Time now 2017-Dec-13 22:35 UTC.
Position N 45°34' W 122°43'.
Warning: this ship's position is 45 days out of date.

Length 37 m; draft 4.6 m.

Type: Tow > 200 m length. MMSI: 366998090.

Date/timePositionNaut miles runAvg speedWind from/ knotsBaromVisibWave heightAir tempDewpointWater temp
2017-Oct-29 09:21N 45°34' W 122°43'0 0.0
2017-Oct-29 09:00N 45°34' W 122°43'1 2.5
2017-Oct-29 08:30N 45°34' W 122°44'3 6.9
2017-Oct-29 08:00N 45°37' W 122°47'4 7.3
2017-Oct-29 07:31N 45°38' W 122°42'0 0.4
2017-Oct-29 07:00N 45°38' W 122°43'3 5.1
2017-Oct-29 06:31N 45°39' W 122°46'3 5.6
2017-Oct-29 06:00N 45°42' W 122°46'3 5.7
2017-Oct-29 05:31N 45°45' W 122°46'3 5.6
2017-Oct-29 05:00N 45°48' W 122°47'3 5.4
2017-Oct-29 04:30N 45°50' W 122°47'3 5.3
2017-Oct-29 04:00N 45°53' W 122°48'35 3.9
2017-Oct-28 19:00N 46°15' W 123°27'3 5.3
2017-Oct-28 18:30N 46°16' W 123°30'3 5.6
2017-Oct-28 18:01N 46°15' W 123°34'3 5.6
2017-Oct-28 17:31N 46°15' W 123°38'3 6.0
2017-Oct-28 17:00N 46°14' W 123°42'3 6.0
2017-Oct-28 16:30N 46°13' W 123°46'3 5.9
2017-Oct-28 16:00N 46°12' W 123°50'3 6.2
2017-Oct-28 15:30N 46°11' W 123°54'3 6.2
2017-Oct-28 15:00N 46°13' W 123°58'3 5.1
2017-Oct-28 14:30N 46°15' W 124°01'3 5.8
2017-Oct-28 14:00N 46°15' W 124°05'2 4.0
2017-Oct-28 13:30N 46°14' W 124°07'3 5.9
2017-Oct-28 13:00N 46°12' W 124°11'3 5.6
2017-Oct-28 12:31N 46°13' W 124°15'3 5.3
2017-Oct-28 12:01N 46°15' W 124°18'3 5.5
2017-Oct-28 11:22N 46°18' W 124°19'2 5.3
2017-Oct-28 11:01N 46°20' W 124°20'3 5.3
2017-Oct-28 10:31N 46°23' W 124°20'3 5.7
2017-Oct-28 10:00N 46°25' W 124°21'3 6.1
2017-Oct-28 09:30N 46°28' W 124°22'3 5.9
2017-Oct-28 09:00N 46°31' W 124°23'3 5.8
2017-Oct-28 08:30N 46°34' W 124°24'3 5.9
2017-Oct-28 08:00N 46°37' W 124°25'3 6.0
2017-Oct-28 07:31N 46°40' W 124°26'3 5.9
2017-Oct-28 07:01N 46°43' W 124°26'3 5.8
2017-Oct-28 06:30N 46°46' W 124°27'4 6.0
2017-Oct-28 05:50N 46°50' W 124°28'2 6.0
2017-Oct-28 05:30N 46°52' W 124°29'3 5.9
2017-Oct-28 05:00N 46°55' W 124°30'3 5.8
2017-Oct-28 04:30N 46°57' W 124°31'3 5.7
2017-Oct-28 04:00N 47°00' W 124°32'8 5.8
2017-Oct-28 02:38N 47°08' W 124°35'1 6.1
2017-Oct-28 02:28N 47°09' W 124°35'63 6.3
2017-Oct-27 16:25N 48°10' W 124°58'5 5.7
2017-Oct-27 15:38N 48°14' W 124°58'1 5.4
2017-Oct-27 15:28N 48°15' W 124°58'2 5.0
2017-Oct-27 14:59N 48°17' W 124°56'3 5.0
2017-Oct-27 14:28N 48°19' W 124°54'3 5.0
2017-Oct-27 13:57N 48°22' W 124°51'2 5.2
2017-Oct-27 13:28N 48°23' W 124°49'3 5.3
2017-Oct-27 13:00N 48°25' W 124°46'3 6.0
2017-Oct-27 12:30N 48°25' W 124°42'3 6.8
2017-Oct-27 12:00N 48°25' W 124°37'4 7.5
2017-Oct-27 11:30N 48°23' W 124°32'4 7.7
2017-Oct-27 11:00N 48°21' W 124°27'4 7.7
2017-Oct-27 10:31N 48°20' W 124°21'4 7.6
2017-Oct-27 10:01N 48°18' W 124°16'4 7.4
2017-Oct-27 09:30N 48°16' W 124°11'4 7.9
2017-Oct-27 08:57N 48°15' W 124°05'4 8.0
2017-Oct-27 08:28N 48°13' W 123°60'4 7.9
2017-Oct-27 07:59N 48°11' W 123°55'4 8.4
2017-Oct-27 07:30N 48°12' W 123°49'4 8.8
2017-Oct-27 07:00N 48°12' W 123°42'4 8.3
2017-Oct-27 06:31N 48°12' W 123°36'4 7.4
2017-Oct-27 06:00N 48°13' W 123°31'3 6.9
2017-Oct-27 05:30N 48°15' W 123°27'4 7.1
2017-Oct-27 05:00N 48°17' W 123°22'3 7.0
2017-Oct-27 04:30N 48°19' W 123°18'4 7.1
2017-Oct-27 04:01N 48°22' W 123°14'3 7.0
2017-Oct-27 03:31N 48°25' W 123°12'4 7.3
2017-Oct-27 03:00N 48°28' W 123°12'4 7.7
2017-Oct-27 02:31N 48°32' W 123°13'4 7.4
2017-Oct-27 02:00N 48°36' W 123°14'4 7.1
2017-Oct-27 01:30N 48°39' W 123°15'4 6.0
2017-Oct-27 00:54N 48°43' W 123°14'3 7.9
2017-Oct-27 00:30N 48°44' W 123°09'4 7.3
2017-Oct-27 00:00N 48°46' W 123°04'3 6.7
2017-Oct-26 23:30N 48°48' W 123°01'4 7.5
2017-Oct-26 23:00N 48°51' W 123°04'4 7.7
2017-Oct-26 22:30N 48°54' W 123°08'4 7.8
2017-Oct-26 22:00N 48°56' W 123°13'4 7.5
2017-Oct-26 21:30N 48°59' W 123°17'4 7.8
2017-Oct-26 21:00N 49°02' W 123°20'3 6.6
2017-Oct-26 20:30N 49°05' W 123°20'3 5.6
2017-Oct-26 20:00N 49°07' W 123°16'3 4.9
2017-Oct-26 19:30N 49°08' W 123°12'2 5.1
2017-Oct-26 19:01N 49°07' W 123°09'2 4.8
2017-Oct-26 18:31N 49°07' W 123°05'2 4.7
2017-Oct-26 18:01N 49°09' W 123°03'2 2.6
2017-Oct-26 17:22N 49°09' W 123°00'0 0.0
2017-Oct-26 17:00N 49°09' W 123°00'0 0.0
2017-Oct-26 16:30N 49°09' W 123°00'0 0.0
2017-Oct-26 15:58N 49°09' W 123°00'0 0.0
2017-Oct-26 15:31N 49°09' W 123°00'0 0.0
2017-Oct-26 15:00N 49°09' W 123°00'0 0.0
2017-Oct-26 14:31N 49°09' W 123°00'0 0.0
2017-Oct-26 14:01N 49°09' W 123°00'0 0.0
2017-Oct-26 13:31N 49°09' W 123°00'0 0.0
2017-Oct-26 13:01N 49°09' W 123°00'0 0.0
2017-Oct-26 12:31N 49°09' W 123°00'0 0.0
2017-Oct-26 12:00N 49°09' W 123°00'0 0.0
2017-Oct-26 11:30N 49°09' W 123°00'0 0.0
2017-Oct-26 11:00N 49°09' W 123°00'0 0.0
2017-Oct-26 10:31N 49°09' W 123°00'0 0.0
2017-Oct-26 10:00N 49°09' W 123°00'0 0.0
2017-Oct-26 09:31N 49°09' W 123°00'0 0.0
2017-Oct-26 09:01N 49°09' W 123°00'0 0.0
2017-Oct-26 08:30N 49°09' W 123°00'0 0.0
2017-Oct-26 08:01N 49°09' W 123°00'0 0.0
2017-Oct-26 07:31N 49°09' W 123°00'0 0.0
2017-Oct-26 07:00N 49°09' W 123°00'0 0.0
2017-Oct-26 06:30N 49°09' W 123°00'0 0.0
2017-Oct-26 06:00N 49°09' W 123°00'0 0.0
2017-Oct-26 05:30N 49°09' W 123°00'0 0.0
2017-Oct-26 05:01N 49°09' W 123°00'0 0.0
2017-Oct-26 04:30N 49°09' W 123°00'0 0.0
2017-Oct-26 04:00N 49°09' W 123°00'0 0.0
2017-Oct-26 03:30N 49°09' W 123°00'0 0.0
2017-Oct-26 03:00N 49°09' W 123°00'0 0.0
2017-Oct-26 02:31N 49°09' W 123°00'0 0.0
2017-Oct-26 02:00N 49°09' W 123°00'0 0.0
2017-Oct-26 01:30N 49°09' W 123°00'0 0.0
2017-Oct-26 01:00N 49°09' W 123°00'0 0.0
2017-Oct-26 00:31N 49°09' W 123°00'0 0.0
2017-Oct-26 00:01N 49°09' W 123°00'0 0.0
2017-Oct-25 23:30N 49°09' W 123°00'0 0.0
2017-Oct-25 23:00N 49°09' W 123°00'0 0.0
2017-Oct-25 22:30N 49°09' W 123°00'0 0.0
2017-Oct-25 22:00N 49°09' W 123°00'0 0.0
2017-Oct-25 21:31N 49°09' W 123°00'0 0.0
2017-Oct-25 21:00N 49°09' W 123°00'0 0.0
2017-Oct-25 20:30N 49°09' W 123°00'0 0.0
2017-Oct-25 20:00N 49°09' W 123°00'0 0.0
2017-Oct-25 19:30N 49°09' W 123°00'0 0.0
2017-Oct-25 19:00N 49°09' W 123°00'0 0.0
2017-Oct-25 18:31N 49°09' W 123°00'0 0.0
2017-Oct-25 18:01N 49°09' W 123°00'0 0.0
2017-Oct-25 17:31N 49°09' W 123°00'0 0.0
2017-Oct-25 17:01N 49°09' W 123°00'0 0.0
2017-Oct-25 16:31N 49°09' W 123°00'0 0.0
2017-Oct-25 16:00N 49°09' W 123°00'0 0.0
2017-Oct-25 15:30N 49°09' W 123°00'0 0.0
2017-Oct-25 15:00N 49°09' W 123°00'0 0.0
2017-Oct-25 14:30N 49°09' W 123°00'0 0.0
2017-Oct-25 14:00N 49°09' W 123°00'0 0.0
2017-Oct-25 13:30N 49°09' W 123°00'0 0.0
2017-Oct-25 13:01N 49°09' W 123°00'0 0.0
2017-Oct-25 12:31N 49°09' W 123°00'0 0.0
2017-Oct-25 12:00N 49°09' W 123°00'0 0.0
2017-Oct-25 11:30N 49°09' W 123°00'0 0.0
2017-Oct-25 11:00N 49°09' W 123°00'0 0.0
2017-Oct-25 10:31N 49°09' W 123°00'0 0.0
2017-Oct-25 10:00N 49°09' W 123°00'0 0.0
2017-Oct-25 09:27N 49°09' W 123°00'0 0.0
2017-Oct-25 09:00N 49°09' W 123°00'0 0.0
2017-Oct-25 08:30N 49°09' W 123°00'0 0.0
2017-Oct-25 08:00N 49°09' W 123°00'0 0.0
2017-Oct-25 07:30N 49°09' W 123°00'0 0.0
2017-Oct-25 07:00N 49°09' W 123°00'0 0.0
2017-Oct-25 06:31N 49°09' W 123°00'0 0.0
2017-Oct-25 06:01N 49°09' W 123°00'0 0.1
2017-Oct-25 05:31N 49°09' W 123°00'0 0.1
2017-Oct-25 05:00N 49°09' W 123°00'0 0.0
2017-Oct-25 04:31N 49°09' W 123°00'0 0.0
2017-Oct-25 04:01N 49°09' W 123°00'0 0.0
2017-Oct-25 03:31N 49°09' W 123°00'0 0.0
2017-Oct-25 03:00N 49°09' W 123°00'0 0.0
2017-Oct-25 02:31N 49°09' W 123°00'0 0.0
2017-Oct-25 02:01N 49°09' W 123°00'0 0.0
2017-Oct-25 01:31N 49°09' W 123°00'0 0.0
2017-Oct-25 01:01N 49°09' W 123°00'0 0.0
2017-Oct-25 00:31N 49°09' W 123°00'0 0.0
2017-Oct-25 00:01N 49°09' W 123°00'0 0.0
2017-Oct-24 23:30N 49°09' W 123°00'0 0.0
2017-Oct-24 23:01N 49°09' W 123°00'0 0.0
2017-Oct-24 22:30N 49°09' W 123°00'0 0.0
2017-Oct-24 22:00N 49°09' W 123°00'0 0.0
2017-Oct-24 21:31N 49°09' W 123°00'0 0.0
2017-Oct-24 21:01N 49°09' W 123°00'0 0.0
2017-Oct-24 20:31N 49°09' W 123°00'0 0.0
2017-Oct-24 20:01N 49°09' W 123°00'0 0.0
2017-Oct-24 19:30N 49°09' W 123°00'0 0.0
2017-Oct-24 19:00N 49°09' W 123°00'0 0.1
2017-Oct-24 18:29N 49°09' W 123°00'0 0.1
2017-Oct-24 18:00N 49°09' W 123°00'0 0.0
2017-Oct-24 17:31N 49°09' W 123°00'0 0.0
2017-Oct-24 17:00N 49°09' W 123°00'0 0.0
2017-Oct-24 16:30N 49°09' W 123°00'0 0.0
2017-Oct-24 16:00N 49°09' W 123°00'0 0.0
2017-Oct-24 15:29N 49°09' W 123°00'0 0.0
2017-Oct-24 14:59N 49°09' W 123°00'0 0.0
2017-Oct-24 14:28N 49°09' W 123°00'0 0.0
2017-Oct-24 13:57N 49°09' W 123°00'0 0.0
2017-Oct-24 13:30N 49°09' W 123°00'0 0.0
2017-Oct-24 13:01N 49°09' W 123°00'0 0.0
2017-Oct-24 12:31N 49°09' W 123°00'0 0.0
2017-Oct-24 12:01N 49°09' W 123°00'0 0.0
2017-Oct-24 11:30N 49°09' W 123°00'0 0.0
2017-Oct-24 11:00N 49°09' W 123°00'0 0.0
2017-Oct-24 10:31N 49°09' W 123°00'0 0.0
2017-Oct-24 10:01N 49°09' W 123°00'0 0.0
2017-Oct-24 09:31N 49°09' W 123°00'0 0.1
2017-Oct-24 09:00N 49°09' W 123°00'0 0.1
2017-Oct-24 08:31N 49°09' W 123°00'0 0.0
2017-Oct-24 08:01N 49°09' W 123°00'0 0.0
2017-Oct-24 07:30N 49°09' W 123°00'0 0.0
2017-Oct-24 07:01N 49°09' W 123°00'0 0.0
2017-Oct-24 06:30N 49°09' W 123°00'0 0.1
2017-Oct-24 06:00N 49°09' W 123°00'0 0.0
2017-Oct-24 05:30N 49°09' W 123°00'0 0.2
2017-Oct-24 05:01N 49°09' W 123°00'1 2.5
2017-Oct-24 04:31N 49°09' W 123°02'3 5.2
2017-Oct-24 04:00N 49°07' W 123°05'3 6.1
2017-Oct-24 03:30N 49°07' W 123°10'3 6.4
2017-Oct-24 03:00N 49°08' W 123°14'4 7.0
2017-Oct-24 02:30N 49°06' W 123°19'3 6.1
2017-Oct-24 02:01N 49°03' W 123°18'2 4.5
2017-Oct-24 01:31N 49°01' W 123°15'5 9.0
2017-Oct-24 01:00N 48°58' W 123°10'4 9.0
2017-Oct-24 00:31N 48°55' W 123°05'4 8.9
2017-Oct-24 00:00N 48°52' W 123°01'4 8.0
2017-Oct-23 23:30N 48°48' W 122°59'4 8.8
2017-Oct-23 23:01N 48°45' W 123°04'4 8.4
2017-Oct-23 22:31N 48°43' W 123°10'4 8.5
2017-Oct-23 22:00N 48°41' W 123°15'4 8.8
2017-Oct-23 21:30N 48°37' W 123°13'4 7.7
2017-Oct-23 21:01N 48°33' W 123°12'4 7.7
2017-Oct-23 20:30N 48°29' W 123°10'4 7.8
2017-Oct-23 20:00N 48°25' W 123°10'3 6.5
2017-Oct-23 19:31N 48°23' W 123°13'3 6.9
2017-Oct-23 19:01N 48°20' W 123°17'4 7.8
2017-Oct-23 18:31N 48°18' W 123°21'4 8.3
2017-Oct-23 18:00N 48°16' W 123°27'4 8.3
2017-Oct-23 17:31N 48°13' W 123°32'4 8.2
2017-Oct-23 16:59N 48°12' W 123°38'4 8.6
2017-Oct-23 16:28N 48°12' W 123°45'4 9.0
2017-Oct-23 16:00N 48°12' W 123°51'6 9.2
2017-Oct-23 15:21N 48°14' W 123°60'3 9.5
2017-Oct-23 15:00N 48°15' W 124°04'5 9.7
2017-Oct-23 14:30N 48°17' W 124°11'510.0
2017-Oct-23 14:00N 48°19' W 124°18'510.1
2017-Oct-23 13:30N 48°21' W 124°25'510.2
2017-Oct-23 13:01N 48°24' W 124°32'510.7
2017-Oct-23 12:31N 48°26' W 124°39'510.0
2017-Oct-23 11:59N 48°25' W 124°47'4 9.6
2017-Oct-23 11:30N 48°22' W 124°51'510.2
2017-Oct-23 11:01N 48°18' W 124°55'5 9.5
2017-Oct-23 10:30N 48°13' W 124°59'76 8.9
2017-Oct-23 02:00N 46°60' W 124°32'4 7.2
2017-Oct-23 01:31N 46°57' W 124°31'4 7.1
2017-Oct-23 01:00N 46°53' W 124°30'3 7.0
2017-Oct-23 00:30N 46°50' W 124°28'3 7.0
2017-Oct-23 00:00N 46°46' W 124°27'3 6.7
2017-Oct-22 23:31N 46°43' W 124°26'3 6.4
2017-Oct-22 23:01N 46°40' W 124°24'3 6.7
2017-Oct-22 22:30N 46°37' W 124°22'4 7.1
2017-Oct-22 22:00N 46°34' W 124°21'4 7.9
2017-Oct-22 21:31N 46°30' W 124°19'5 8.9
2017-Oct-22 20:54N 46°25' W 124°17'4 9.0
2017-Oct-22 20:31N 46°21' W 124°16'5 9.1
2017-Oct-22 20:01N 46°17' W 124°14'4 7.5
2017-Oct-22 19:31N 46°14' W 124°11'2 4.1
2017-Oct-22 19:00N 46°14' W 124°08'2 3.6
2017-Oct-22 18:31N 46°15' W 124°06'2 4.9
2017-Oct-22 18:01N 46°15' W 124°03'4 7.5
2017-Oct-22 17:31N 46°14' W 123°58'4 8.0
2017-Oct-22 17:01N 46°11' W 123°53'4 8.6
2017-Oct-22 16:31N 46°13' W 123°47'4 8.8
2017-Oct-22 16:01N 46°15' W 123°42'5 9.3
2017-Oct-22 15:31N 46°15' W 123°35'4 8.6
2017-Oct-22 15:01N 46°16' W 123°29'5 8.7
2017-Oct-22 14:27N 46°12' W 123°26'4 9.1
2017-Oct-22 14:00N 46°09' W 123°22'5 9.1
2017-Oct-22 13:30N 46°09' W 123°15'4 9.0
2017-Oct-22 13:00N 46°11' W 123°10'4 8.3
2017-Oct-22 12:31N 46°10' W 123°04'4 8.5
2017-Oct-22 12:00N 46°07' W 122°59'4 8.2
2017-Oct-22 11:30N 46°05' W 122°54'4 8.1
2017-Oct-22 11:00N 46°01' W 122°52'4 7.8
2017-Oct-22 10:31N 45°58' W 122°49'4 8.4
2017-Oct-22 10:01N 45°54' W 122°48'4 8.7
2017-Oct-22 09:31N 45°49' W 122°48'4 8.7
2017-Oct-22 09:00N 45°45' W 122°46'4 9.0
2017-Oct-22 08:30N 45°41' W 122°47'4 8.9
2017-Oct-22 08:01N 45°38' W 122°42'0 0.2
2017-Oct-22 07:31N 45°38' W 122°42'1 1.2
2017-Oct-22 07:01N 45°37' W 122°41'4 7.1
2017-Oct-22 06:30N 45°39' W 122°46'4 8.8
2017-Oct-22 06:00N 45°35' W 122°45'2 3.9
2017-Oct-22 05:31N 45°34' W 122°43'0 0.2
2017-Oct-22 05:00N 45°34' W 122°43'0 0.0
2017-Oct-22 04:31N 45°34' W 122°43'0 0.0
2017-Oct-22 04:00N 45°34' W 122°43'0 0.0
2017-Oct-22 03:31N 45°34' W 122°43'0 0.0
2017-Oct-22 03:01N 45°34' W 122°43'0 0.0
2017-Oct-22 02:31N 45°34' W 122°43'0 0.0
2017-Oct-22 02:01N 45°34' W 122°43'0 0.0
2017-Oct-22 01:31N 45°34' W 122°43'0 0.0
2017-Oct-22 01:01N 45°34' W 122°43'0 0.0
2017-Oct-22 00:31N 45°34' W 122°43'0 0.0
2017-Oct-22 00:01N 45°34' W 122°43'0 0.0
2017-Oct-21 23:31N 45°34' W 122°43'0 0.0
2017-Oct-21 23:00N 45°34' W 122°43'0 0.0
2017-Oct-21 22:30N 45°34' W 122°43'0 0.0
2017-Oct-21 22:00N 45°34' W 122°43'0 0.0
2017-Oct-21 21:30N 45°34' W 122°43'0 0.0
2017-Oct-21 21:00N 45°34' W 122°43'0 0.0
2017-Oct-21 20:30N 45°34' W 122°43'0 0.0
2017-Oct-21 20:00N 45°34' W 122°43'0 0.0
2017-Oct-21 19:30N 45°34' W 122°43'0 0.0
2017-Oct-21 19:00N 45°34' W 122°43'0 0.0
2017-Oct-21 18:31N 45°34' W 122°43'0 0.0
2017-Oct-21 18:00N 45°34' W 122°43'0 0.0
2017-Oct-21 17:30N 45°34' W 122°43'0 0.0
2017-Oct-21 17:00N 45°34' W 122°43'0 0.0
2017-Oct-21 16:30N 45°34' W 122°43'0 0.0
2017-Oct-21 16:01N 45°34' W 122°43'0 0.0
2017-Oct-21 15:30N 45°34' W 122°43'0 0.0
2017-Oct-21 15:00N 45°34' W 122°43'0 0.0
2017-Oct-21 14:30N 45°34' W 122°43'0 0.0
2017-Oct-21 13:30N 45°34' W 122°43'0 0.0
2017-Oct-21 13:00N 45°34' W 122°43'0 0.0
2017-Oct-21 12:30N 45°34' W 122°43'0 0.0
2017-Oct-21 12:01N 45°34' W 122°43'0 0.0
2017-Oct-21 11:30N 45°34' W 122°43'0 0.0
2017-Oct-21 11:00N 45°34' W 122°43'0 0.0
2017-Oct-21 10:30N 45°34' W 122°43'0 0.0
2017-Oct-21 10:00N 45°34' W 122°43'0 0.0
2017-Oct-21 09:30N 45°34' W 122°43'0 0.0
2017-Oct-21 09:00N 45°34' W 122°43'0 0.0
2017-Oct-21 08:30N 45°34' W 122°43'0 0.0
2017-Oct-21 08:00N 45°34' W 122°43'0 0.0
2017-Oct-21 07:31N 45°34' W 122°43'0 0.0
2017-Oct-21 07:00N 45°34' W 122°43'0 0.0
2017-Oct-21 06:30N 45°34' W 122°43'0 0.0
2017-Oct-21 06:00N 45°34' W 122°43'0 0.0
2017-Oct-21 05:30N 45°34' W 122°43'0 0.0
2017-Oct-21 05:00N 45°34' W 122°43'0 0.0
2017-Oct-21 04:30N 45°34' W 122°43'0 0.0
2017-Oct-21 04:00N 45°34' W 122°43'0 0.0
2017-Oct-21 03:30N 45°34' W 122°43'0 0.0
2017-Oct-21 03:00N 45°34' W 122°43'0 0.0
2017-Oct-21 02:30N 45°34' W 122°43'0 0.0
2017-Oct-21 02:00N 45°34' W 122°43'0 0.0
2017-Oct-21 01:30N 45°34' W 122°43'0 0.0
2017-Oct-21 01:00N 45°34' W 122°43'0 0.0
2017-Oct-21 00:30N 45°34' W 122°43'0 0.0
2017-Oct-20 23:59N 45°34' W 122°43'0 0.0
2017-Oct-20 23:30N 45°34' W 122°43'0 0.0
2017-Oct-20 23:00N 45°34' W 122°43'0 0.0
2017-Oct-20 22:30N 45°34' W 122°43'  
Track history (hours):
 
Tides and Currents Weather Stations Pressure Air Temp Water Temp Dewpoint Dewpoint Depression Visibility Wind Speed Wind Dir Waves Ship Positions

Mauna Loa

Owner: Salmon Bay Barge Line, Inc., Seattle, WA. More information available from US FCC via Universal Licensing System and Coast Guard Vessel Documentation Center.

Last reported at 2017-Oct-29 09:21 UTC. Time now 2017-Dec-13 22:35 UTC.
Position N 45°34' W 122°43'.
Warning: this ship's position is 45 days out of date.

Length 37 m; draft 4.6 m.

Type: Tow > 200 m length. MMSI: 366998090.

Date/timePositionNaut miles runAvg speedWind from/ knotsBaromVisibWave heightAir tempDewpointWater temp
2017-Oct-29 09:21N 45°34' W 122°43'0 0.0
2017-Oct-29 09:00N 45°34' W 122°43'1 2.5
2017-Oct-29 08:30N 45°34' W 122°44'3 6.9
2017-Oct-29 08:00N 45°37' W 122°47'4 7.3
2017-Oct-29 07:31N 45°38' W 122°42'0 0.4
2017-Oct-29 07:00N 45°38' W 122°43'3 5.1
2017-Oct-29 06:31N 45°39' W 122°46'3 5.6
2017-Oct-29 06:00N 45°42' W 122°46'3 5.7
2017-Oct-29 05:31N 45°45' W 122°46'3 5.6
2017-Oct-29 05:00N 45°48' W 122°47'3 5.4
2017-Oct-29 04:30N 45°50' W 122°47'3 5.3
2017-Oct-29 04:00N 45°53' W 122°48'35 3.9
2017-Oct-28 19:00N 46°15' W 123°27'3 5.3
2017-Oct-28 18:30N 46°16' W 123°30'3 5.6
2017-Oct-28 18:01N 46°15' W 123°34'3 5.6
2017-Oct-28 17:31N 46°15' W 123°38'3 6.0
2017-Oct-28 17:00N 46°14' W 123°42'3 6.0
2017-Oct-28 16:30N 46°13' W 123°46'3 5.9
2017-Oct-28 16:00N 46°12' W 123°50'3 6.2
2017-Oct-28 15:30N 46°11' W 123°54'3 6.2
2017-Oct-28 15:00N 46°13' W 123°58'3 5.1
2017-Oct-28 14:30N 46°15' W 124°01'3 5.8
2017-Oct-28 14:00N 46°15' W 124°05'2 4.0
2017-Oct-28 13:30N 46°14' W 124°07'3 5.9
2017-Oct-28 13:00N 46°12' W 124°11'3 5.6
2017-Oct-28 12:31N 46°13' W 124°15'3 5.3
2017-Oct-28 12:01N 46°15' W 124°18'3 5.5
2017-Oct-28 11:22N 46°18' W 124°19'2 5.3
2017-Oct-28 11:01N 46°20' W 124°20'3 5.3
2017-Oct-28 10:31N 46°23' W 124°20'3 5.7
2017-Oct-28 10:00N 46°25' W 124°21'3 6.1
2017-Oct-28 09:30N 46°28' W 124°22'3 5.9
2017-Oct-28 09:00N 46°31' W 124°23'3 5.8
2017-Oct-28 08:30N 46°34' W 124°24'3 5.9
2017-Oct-28 08:00N 46°37' W 124°25'3 6.0
2017-Oct-28 07:31N 46°40' W 124°26'3 5.9
2017-Oct-28 07:01N 46°43' W 124°26'3 5.8
2017-Oct-28 06:30N 46°46' W 124°27'4 6.0
2017-Oct-28 05:50N 46°50' W 124°28'2 6.0
2017-Oct-28 05:30N 46°52' W 124°29'3 5.9
2017-Oct-28 05:00N 46°55' W 124°30'3 5.8
2017-Oct-28 04:30N 46°57' W 124°31'3 5.7
2017-Oct-28 04:00N 47°00' W 124°32'8 5.8
2017-Oct-28 02:38N 47°08' W 124°35'1 6.1
2017-Oct-28 02:28N 47°09' W 124°35'63 6.3
2017-Oct-27 16:25N 48°10' W 124°58'5 5.7
2017-Oct-27 15:38N 48°14' W 124°58'1 5.4
2017-Oct-27 15:28N 48°15' W 124°58'2 5.0
2017-Oct-27 14:59N 48°17' W 124°56'3 5.0
2017-Oct-27 14:28N 48°19' W 124°54'3 5.0
2017-Oct-27 13:57N 48°22' W 124°51'2 5.2
2017-Oct-27 13:28N 48°23' W 124°49'3 5.3
2017-Oct-27 13:00N 48°25' W 124°46'3 6.0
2017-Oct-27 12:30N 48°25' W 124°42'3 6.8
2017-Oct-27 12:00N 48°25' W 124°37'4 7.5
2017-Oct-27 11:30N 48°23' W 124°32'4 7.7
2017-Oct-27 11:00N 48°21' W 124°27'4 7.7
2017-Oct-27 10:31N 48°20' W 124°21'4 7.6
2017-Oct-27 10:01N 48°18' W 124°16'4 7.4
2017-Oct-27 09:30N 48°16' W 124°11'4 7.9
2017-Oct-27 08:57N 48°15' W 124°05'4 8.0
2017-Oct-27 08:28N 48°13' W 123°60'4 7.9
2017-Oct-27 07:59N 48°11' W 123°55'4 8.4
2017-Oct-27 07:30N 48°12' W 123°49'4 8.8
2017-Oct-27 07:00N 48°12' W 123°42'4 8.3
2017-Oct-27 06:31N 48°12' W 123°36'4 7.4
2017-Oct-27 06:00N 48°13' W 123°31'3 6.9
2017-Oct-27 05:30N 48°15' W 123°27'4 7.1
2017-Oct-27 05:00N 48°17' W 123°22'3 7.0
2017-Oct-27 04:30N 48°19' W 123°18'4 7.1
2017-Oct-27 04:01N 48°22' W 123°14'3 7.0
2017-Oct-27 03:31N 48°25' W 123°12'4 7.3
2017-Oct-27 03:00N 48°28' W 123°12'4 7.7
2017-Oct-27 02:31N 48°32' W 123°13'4 7.4
2017-Oct-27 02:00N 48°36' W 123°14'4 7.1
2017-Oct-27 01:30N 48°39' W 123°15'4 6.0
2017-Oct-27 00:54N 48°43' W 123°14'3 7.9
2017-Oct-27 00:30N 48°44' W 123°09'4 7.3
2017-Oct-27 00:00N 48°46' W 123°04'3 6.7
2017-Oct-26 23:30N 48°48' W 123°01'4 7.5
2017-Oct-26 23:00N 48°51' W 123°04'4 7.7
2017-Oct-26 22:30N 48°54' W 123°08'4 7.8
2017-Oct-26 22:00N 48°56' W 123°13'4 7.5
2017-Oct-26 21:30N 48°59' W 123°17'4 7.8
2017-Oct-26 21:00N 49°02' W 123°20'3 6.6
2017-Oct-26 20:30N 49°05' W 123°20'3 5.6
2017-Oct-26 20:00N 49°07' W 123°16'3 4.9
2017-Oct-26 19:30N 49°08' W 123°12'2 5.1
2017-Oct-26 19:01N 49°07' W 123°09'2 4.8
2017-Oct-26 18:31N 49°07' W 123°05'2 4.7
2017-Oct-26 18:01N 49°09' W 123°03'2 2.6
2017-Oct-26 17:22N 49°09' W 123°00'0 0.0
2017-Oct-26 17:00N 49°09' W 123°00'0 0.0
2017-Oct-26 16:30N 49°09' W 123°00'0 0.0
2017-Oct-26 15:58N 49°09' W 123°00'0 0.0
2017-Oct-26 15:31N 49°09' W 123°00'0 0.0
2017-Oct-26 15:00N 49°09' W 123°00'0 0.0
2017-Oct-26 14:31N 49°09' W 123°00'0 0.0
2017-Oct-26 14:01N 49°09' W 123°00'0 0.0
2017-Oct-26 13:31N 49°09' W 123°00'0 0.0
2017-Oct-26 13:01N 49°09' W 123°00'0 0.0
2017-Oct-26 12:31N 49°09' W 123°00'0 0.0
2017-Oct-26 12:00N 49°09' W 123°00'0 0.0
2017-Oct-26 11:30N 49°09' W 123°00'0 0.0
2017-Oct-26 11:00N 49°09' W 123°00'0 0.0
2017-Oct-26 10:31N 49°09' W 123°00'0 0.0
2017-Oct-26 10:00N 49°09' W 123°00'0 0.0
2017-Oct-26 09:31N 49°09' W 123°00'0 0.0
2017-Oct-26 09:01N 49°09' W 123°00'0 0.0
2017-Oct-26 08:30N 49°09' W 123°00'0 0.0
2017-Oct-26 08:01N 49°09' W 123°00'0 0.0
2017-Oct-26 07:31N 49°09' W 123°00'0 0.0
2017-Oct-26 07:00N 49°09' W 123°00'0 0.0
2017-Oct-26 06:30N 49°09' W 123°00'0 0.0
2017-Oct-26 06:00N 49°09' W 123°00'0 0.0
2017-Oct-26 05:30N 49°09' W 123°00'0 0.0
2017-Oct-26 05:01N 49°09' W 123°00'0 0.0
2017-Oct-26 04:30N 49°09' W 123°00'0 0.0
2017-Oct-26 04:00N 49°09' W 123°00'0 0.0
2017-Oct-26 03:30N 49°09' W 123°00'0 0.0
2017-Oct-26 03:00N 49°09' W 123°00'0 0.0
2017-Oct-26 02:31N 49°09' W 123°00'0 0.0
2017-Oct-26 02:00N 49°09' W 123°00'0 0.0
2017-Oct-26 01:30N 49°09' W 123°00'0 0.0
2017-Oct-26 01:00N 49°09' W 123°00'0 0.0
2017-Oct-26 00:31N 49°09' W 123°00'0 0.0
2017-Oct-26 00:01N 49°09' W 123°00'0 0.0
2017-Oct-25 23:30N 49°09' W 123°00'0 0.0
2017-Oct-25 23:00N 49°09' W 123°00'0 0.0
2017-Oct-25 22:30N 49°09' W 123°00'0 0.0
2017-Oct-25 22:00N 49°09' W 123°00'0 0.0
2017-Oct-25 21:31N 49°09' W 123°00'0 0.0
2017-Oct-25 21:00N 49°09' W 123°00'0 0.0
2017-Oct-25 20:30N 49°09' W 123°00'0 0.0
2017-Oct-25 20:00N 49°09' W 123°00'0 0.0
2017-Oct-25 19:30N 49°09' W 123°00'0 0.0
2017-Oct-25 19:00N 49°09' W 123°00'0 0.0
2017-Oct-25 18:31N 49°09' W 123°00'0 0.0
2017-Oct-25 18:01N 49°09' W 123°00'0 0.0
2017-Oct-25 17:31N 49°09' W 123°00'0 0.0
2017-Oct-25 17:01N 49°09' W 123°00'0 0.0
2017-Oct-25 16:31N 49°09' W 123°00'0 0.0
2017-Oct-25 16:00N 49°09' W 123°00'0 0.0
2017-Oct-25 15:30N 49°09' W 123°00'0 0.0
2017-Oct-25 15:00N 49°09' W 123°00'0 0.0
2017-Oct-25 14:30N 49°09' W 123°00'0 0.0
2017-Oct-25 14:00N 49°09' W 123°00'0 0.0
2017-Oct-25 13:30N 49°09' W 123°00'0 0.0
2017-Oct-25 13:01N 49°09' W 123°00'0 0.0
2017-Oct-25 12:31N 49°09' W 123°00'0 0.0
2017-Oct-25 12:00N 49°09' W 123°00'0 0.0
2017-Oct-25 11:30N 49°09' W 123°00'0 0.0
2017-Oct-25 11:00N 49°09' W 123°00'0 0.0
2017-Oct-25 10:31N 49°09' W 123°00'0 0.0
2017-Oct-25 10:00N 49°09' W 123°00'0 0.0
2017-Oct-25 09:27N 49°09' W 123°00'0 0.0
2017-Oct-25 09:00N 49°09' W 123°00'0 0.0
2017-Oct-25 08:30N 49°09' W 123°00'0 0.0
2017-Oct-25 08:00N 49°09' W 123°00'0 0.0
2017-Oct-25 07:30N 49°09' W 123°00'0 0.0
2017-Oct-25 07:00N 49°09' W 123°00'0 0.0
2017-Oct-25 06:31N 49°09' W 123°00'0 0.0
2017-Oct-25 06:01N 49°09' W 123°00'0 0.1
2017-Oct-25 05:31N 49°09' W 123°00'0 0.1
2017-Oct-25 05:00N 49°09' W 123°00'0 0.0
2017-Oct-25 04:31N 49°09' W 123°00'0 0.0
2017-Oct-25 04:01N 49°09' W 123°00'0 0.0
2017-Oct-25 03:31N 49°09' W 123°00'0 0.0
2017-Oct-25 03:00N 49°09' W 123°00'0 0.0
2017-Oct-25 02:31N 49°09' W 123°00'0 0.0
2017-Oct-25 02:01N 49°09' W 123°00'0 0.0
2017-Oct-25 01:31N 49°09' W 123°00'0 0.0
2017-Oct-25 01:01N 49°09' W 123°00'0 0.0
2017-Oct-25 00:31N 49°09' W 123°00'0 0.0
2017-Oct-25 00:01N 49°09' W 123°00'0 0.0
2017-Oct-24 23:30N 49°09' W 123°00'0 0.0
2017-Oct-24 23:01N 49°09' W 123°00'0 0.0
2017-Oct-24 22:30N 49°09' W 123°00'0 0.0
2017-Oct-24 22:00N 49°09' W 123°00'0 0.0
2017-Oct-24 21:31N 49°09' W 123°00'0 0.0
2017-Oct-24 21:01N 49°09' W 123°00'0 0.0
2017-Oct-24 20:31N 49°09' W 123°00'0 0.0
2017-Oct-24 20:01N 49°09' W 123°00'0 0.0
2017-Oct-24 19:30N 49°09' W 123°00'0 0.0
2017-Oct-24 19:00N 49°09' W 123°00'0 0.1
2017-Oct-24 18:29N 49°09' W 123°00'0 0.1
2017-Oct-24 18:00N 49°09' W 123°00'0 0.0
2017-Oct-24 17:31N 49°09' W 123°00'0 0.0
2017-Oct-24 17:00N 49°09' W 123°00'0 0.0
2017-Oct-24 16:30N 49°09' W 123°00'0 0.0
2017-Oct-24 16:00N 49°09' W 123°00'0 0.0
2017-Oct-24 15:29N 49°09' W 123°00'0 0.0
2017-Oct-24 14:59N 49°09' W 123°00'0 0.0
2017-Oct-24 14:28N 49°09' W 123°00'0 0.0
2017-Oct-24 13:57N 49°09' W 123°00'0 0.0
2017-Oct-24 13:30N 49°09' W 123°00'0 0.0
2017-Oct-24 13:01N 49°09' W 123°00'0 0.0
2017-Oct-24 12:31N 49°09' W 123°00'0 0.0
2017-Oct-24 12:01N 49°09' W 123°00'0 0.0
2017-Oct-24 11:30N 49°09' W 123°00'0 0.0
2017-Oct-24 11:00N 49°09' W 123°00'0 0.0
2017-Oct-24 10:31N 49°09' W 123°00'0 0.0
2017-Oct-24 10:01N 49°09' W 123°00'0 0.0
2017-Oct-24 09:31N 49°09' W 123°00'0 0.1
2017-Oct-24 09:00N 49°09' W 123°00'0 0.1
2017-Oct-24 08:31N 49°09' W 123°00'0 0.0
2017-Oct-24 08:01N 49°09' W 123°00'0 0.0
2017-Oct-24 07:30N 49°09' W 123°00'0 0.0
2017-Oct-24 07:01N 49°09' W 123°00'0 0.0
2017-Oct-24 06:30N 49°09' W 123°00'0 0.1
2017-Oct-24 06:00N 49°09' W 123°00'0 0.0
2017-Oct-24 05:30N 49°09' W 123°00'0 0.2
2017-Oct-24 05:01N 49°09' W 123°00'1 2.5
2017-Oct-24 04:31N 49°09' W 123°02'3 5.2
2017-Oct-24 04:00N 49°07' W 123°05'3 6.1
2017-Oct-24 03:30N 49°07' W 123°10'3 6.4
2017-Oct-24 03:00N 49°08' W 123°14'4 7.0
2017-Oct-24 02:30N 49°06' W 123°19'3 6.1
2017-Oct-24 02:01N 49°03' W 123°18'2 4.5
2017-Oct-24 01:31N 49°01' W 123°15'5 9.0
2017-Oct-24 01:00N 48°58' W 123°10'4 9.0
2017-Oct-24 00:31N 48°55' W 123°05'4 8.9
2017-Oct-24 00:00N 48°52' W 123°01'4 8.0
2017-Oct-23 23:30N 48°48' W 122°59'4 8.8
2017-Oct-23 23:01N 48°45' W 123°04'4 8.4
2017-Oct-23 22:31N 48°43' W 123°10'4 8.5
2017-Oct-23 22:00N 48°41' W 123°15'4 8.8
2017-Oct-23 21:30N 48°37' W 123°13'4 7.7
2017-Oct-23 21:01N 48°33' W 123°12'4 7.7
2017-Oct-23 20:30N 48°29' W 123°10'4 7.8
2017-Oct-23 20:00N 48°25' W 123°10'3 6.5
2017-Oct-23 19:31N 48°23' W 123°13'3 6.9
2017-Oct-23 19:01N 48°20' W 123°17'4 7.8
2017-Oct-23 18:31N 48°18' W 123°21'4 8.3
2017-Oct-23 18:00N 48°16' W 123°27'4 8.3
2017-Oct-23 17:31N 48°13' W 123°32'4 8.2
2017-Oct-23 16:59N 48°12' W 123°38'4 8.6
2017-Oct-23 16:28N 48°12' W 123°45'4 9.0
2017-Oct-23 16:00N 48°12' W 123°51'6 9.2
2017-Oct-23 15:21N 48°14' W 123°60'3 9.5
2017-Oct-23 15:00N 48°15' W 124°04'5 9.7
2017-Oct-23 14:30N 48°17' W 124°11'510.0
2017-Oct-23 14:00N 48°19' W 124°18'510.1
2017-Oct-23 13:30N 48°21' W 124°25'510.2
2017-Oct-23 13:01N 48°24' W 124°32'510.7
2017-Oct-23 12:31N 48°26' W 124°39'510.0
2017-Oct-23 11:59N 48°25' W 124°47'4 9.6
2017-Oct-23 11:30N 48°22' W 124°51'510.2
2017-Oct-23 11:01N 48°18' W 124°55'5 9.5
2017-Oct-23 10:30N 48°13' W 124°59'76 8.9
2017-Oct-23 02:00N 46°60' W 124°32'4 7.2
2017-Oct-23 01:31N 46°57' W 124°31'4 7.1
2017-Oct-23 01:00N 46°53' W 124°30'3 7.0
2017-Oct-23 00:30N 46°50' W 124°28'3 7.0
2017-Oct-23 00:00N 46°46' W 124°27'3 6.7
2017-Oct-22 23:31N 46°43' W 124°26'3 6.4
2017-Oct-22 23:01N 46°40' W 124°24'3 6.7
2017-Oct-22 22:30N 46°37' W 124°22'4 7.1
2017-Oct-22 22:00N 46°34' W 124°21'4 7.9
2017-Oct-22 21:31N 46°30' W 124°19'5 8.9
2017-Oct-22 20:54N 46°25' W 124°17'4 9.0
2017-Oct-22 20:31N 46°21' W 124°16'5 9.1
2017-Oct-22 20:01N 46°17' W 124°14'4 7.5
2017-Oct-22 19:31N 46°14' W 124°11'2 4.1
2017-Oct-22 19:00N 46°14' W 124°08'2 3.6
2017-Oct-22 18:31N 46°15' W 124°06'2 4.9
2017-Oct-22 18:01N 46°15' W 124°03'4 7.5
2017-Oct-22 17:31N 46°14' W 123°58'4 8.0
2017-Oct-22 17:01N 46°11' W 123°53'4 8.6
2017-Oct-22 16:31N 46°13' W 123°47'4 8.8
2017-Oct-22 16:01N 46°15' W 123°42'5 9.3
2017-Oct-22 15:31N 46°15' W 123°35'4 8.6
2017-Oct-22 15:01N 46°16' W 123°29'5 8.7
2017-Oct-22 14:27N 46°12' W 123°26'4 9.1
2017-Oct-22 14:00N 46°09' W 123°22'5 9.1
2017-Oct-22 13:30N 46°09' W 123°15'4 9.0
2017-Oct-22 13:00N 46°11' W 123°10'4 8.3
2017-Oct-22 12:31N 46°10' W 123°04'4 8.5
2017-Oct-22 12:00N 46°07' W 122°59'4 8.2
2017-Oct-22 11:30N 46°05' W 122°54'4 8.1
2017-Oct-22 11:00N 46°01' W 122°52'4 7.8
2017-Oct-22 10:31N 45°58' W 122°49'4 8.4
2017-Oct-22 10:01N 45°54' W 122°48'4 8.7
2017-Oct-22 09:31N 45°49' W 122°48'4 8.7
2017-Oct-22 09:00N 45°45' W 122°46'4 9.0
2017-Oct-22 08:30N 45°41' W 122°47'4 8.9
2017-Oct-22 08:01N 45°38' W 122°42'0 0.2
2017-Oct-22 07:31N 45°38' W 122°42'1 1.2
2017-Oct-22 07:01N 45°37' W 122°41'4 7.1
2017-Oct-22 06:30N 45°39' W 122°46'4 8.8
2017-Oct-22 06:00N 45°35' W 122°45'2 3.9
2017-Oct-22 05:31N 45°34' W 122°43'0 0.2
2017-Oct-22 05:00N 45°34' W 122°43'0 0.0
2017-Oct-22 04:31N 45°34' W 122°43'0 0.0
2017-Oct-22 04:00N 45°34' W 122°43'0 0.0
2017-Oct-22 03:31N 45°34' W 122°43'0 0.0
2017-Oct-22 03:01N 45°34' W 122°43'0 0.0
2017-Oct-22 02:31N 45°34' W 122°43'0 0.0
2017-Oct-22 02:01N 45°34' W 122°43'0 0.0
2017-Oct-22 01:31N 45°34' W 122°43'0 0.0
2017-Oct-22 01:01N 45°34' W 122°43'0 0.0
2017-Oct-22 00:31N 45°34' W 122°43'0 0.0
2017-Oct-22 00:01N 45°34' W 122°43'0 0.0
2017-Oct-21 23:31N 45°34' W 122°43'0 0.0
2017-Oct-21 23:00N 45°34' W 122°43'0 0.0
2017-Oct-21 22:30N 45°34' W 122°43'0 0.0
2017-Oct-21 22:00N 45°34' W 122°43'0 0.0
2017-Oct-21 21:30N 45°34' W 122°43'0 0.0
2017-Oct-21 21:00N 45°34' W 122°43'0 0.0
2017-Oct-21 20:30N 45°34' W 122°43'0 0.0
2017-Oct-21 20:00N 45°34' W 122°43'0 0.0
2017-Oct-21 19:30N 45°34' W 122°43'0 0.0
2017-Oct-21 19:00N 45°34' W 122°43'0 0.0
2017-Oct-21 18:31N 45°34' W 122°43'0 0.0
2017-Oct-21 18:00N 45°34' W 122°43'0 0.0
2017-Oct-21 17:30N 45°34' W 122°43'0 0.0
2017-Oct-21 17:00N 45°34' W 122°43'0 0.0
2017-Oct-21 16:30N 45°34' W 122°43'0 0.0
2017-Oct-21 16:01N 45°34' W 122°43'0 0.0
2017-Oct-21 15:30N 45°34' W 122°43'0 0.0
2017-Oct-21 15:00N 45°34' W 122°43'0 0.0
2017-Oct-21 14:30N 45°34' W 122°43'0 0.0
2017-Oct-21 13:30N 45°34' W 122°43'0 0.0
2017-Oct-21 13:00N 45°34' W 122°43'0 0.0
2017-Oct-21 12:30N 45°34' W 122°43'0 0.0
2017-Oct-21 12:01N 45°34' W 122°43'0 0.0
2017-Oct-21 11:30N 45°34' W 122°43'0 0.0
2017-Oct-21 11:00N 45°34' W 122°43'0 0.0
2017-Oct-21 10:30N 45°34' W 122°43'0 0.0
2017-Oct-21 10:00N 45°34' W 122°43'0 0.0
2017-Oct-21 09:30N 45°34' W 122°43'0 0.0
2017-Oct-21 09:00N 45°34' W 122°43'0 0.0
2017-Oct-21 08:30N 45°34' W 122°43'0 0.0
2017-Oct-21 08:00N 45°34' W 122°43'0 0.0
2017-Oct-21 07:31N 45°34' W 122°43'0 0.0
2017-Oct-21 07:00N 45°34' W 122°43'0 0.0
2017-Oct-21 06:30N 45°34' W 122°43'0 0.0
2017-Oct-21 06:00N 45°34' W 122°43'0 0.0
2017-Oct-21 05:30N 45°34' W 122°43'0 0.0
2017-Oct-21 05:00N 45°34' W 122°43'0 0.0
2017-Oct-21 04:30N 45°34' W 122°43'0 0.0
2017-Oct-21 04:00N 45°34' W 122°43'0 0.0
2017-Oct-21 03:30N 45°34' W 122°43'0 0.0
2017-Oct-21 03:00N 45°34' W 122°43'0 0.0
2017-Oct-21 02:30N 45°34' W 122°43'0 0.0
2017-Oct-21 02:00N 45°34' W 122°43'0 0.0
2017-Oct-21 01:30N 45°34' W 122°43'0 0.0
2017-Oct-21 01:00N 45°34' W 122°43'0 0.0
2017-Oct-21 00:30N 45°34' W 122°43'0 0.0
2017-Oct-20 23:59N 45°34' W 122°43'0 0.0
2017-Oct-20 23:30N 45°34' W 122°43'0 0.0
2017-Oct-20 23:00N 45°34' W 122°43'0 0.0
2017-Oct-20 22:30N 45°34' W 122°43'  

Dump ship's entire track history